logo
Search for airport 
image banner adimage banner adimage banner ad
image banner ad

YRKB - Rokeby Police Academy

Located in Lauderdale, Australia

ICAO - , IATA -

Data provided by Airmate  

General information

Coordinates: S42°54'39" E147°27'27"
Elevation is 26 feet MSL.
Magnetic variation is 15° East
View others Airports in Tasmania

Operational data

Special qualification required
Current time UTC:
Current local time:
Weather at : YMHB - Hobart ( 9 km )
METAR: YMHB 131600Z AUTO 34007KT 9999 // NCD 15/10 Q1018 RF00.0/000.0
TAF: TAF YMHB 131403Z 1315/1412 31006KT 9999 SCT040
View NOTAMs / SUP AIP / TFR affecting this airport [VIEW]
Communications frequencies: [VIEW]

Runways:

Airport contact information

Address: Lauderdale Australia

Satellite view of YRKB